sensor_id;sensor_type;location;lat;lon;timestamp;P1;durP1;ratioP1;P2;durP2;ratioP2
77417;SDS011;66490;51.484;0.026;2023-04-01T00:00:26;17.20;;;8.65;;
77417;SDS011;66490;51.484;0.026;2023-04-01T00:03:10;15.40;;;7.33;;
77417;SDS011;66490;51.484;0.026;2023-04-01T00:05:54;16.20;;;7.75;;
77417;SDS011;66490;51.484;0.026;2023-04-01T00:08:39;16.60;;;7.60;;
77417;SDS011;66490;51.484;0.026;2023-04-01T00:11:25;13.70;;;7.75;;
77417;SDS011;66490;51.484;0.026;2023-04-01T00:14:11;11.32;;;7.25;;
77417;SDS011;66490;51.484;0.026;2023-04-01T00:16:55;13.67;;;7.33;;
77417;SDS011;66490;51.484;0.026;2023-04-01T00:19:39;11.70;;;6.90;;
77417;SDS011;66490;51.484;0.026;2023-04-01T00:22:23;11.98;;;7.10;;
77417;SDS011;66490;51.484;0.026;2023-04-01T00:25:07;13.48;;;6.55;;
77417;SDS011;66490;51.484;0.026;2023-04-01T00:27:51;14.15;;;7.47;;
77417;SDS011;66490;51.484;0.026;2023-04-01T00:30:36;12.13;;;6.10;;
77417;SDS011;66490;51.484;0.026;2023-04-01T00:33:20;11.77;;;6.32;;
77417;SDS011;66490;51.484;0.026;2023-04-01T00:36:11;12.55;;;6.10;;
77417;SDS011;66490;51.484;0.026;2023-04-01T00:38:57;11.57;;;6.20;;
77417;SDS011;66490;51.484;0.026;2023-04-01T00:41:41;13.05;;;6.25;;
77417;SDS011;66490;51.484;0.026;2023-04-01T00:44:27;13.17;;;7.80;;
77417;SDS011;66490;51.484;0.026;2023-04-01T00:47:11;11.07;;;6.55;;
77417;SDS011;66490;51.484;0.026;2023-04-01T00:49:55;13.98;;;7.13;;
77417;SDS011;66490;51.484;0.026;2023-04-01T00:52:39;14.77;;;7.22;;
77417;SDS011;66490;51.484;0.026;2023-04-01T00:55:25;13.02;;;7.05;;
77417;SDS011;66490;51.484;0.026;2023-04-01T00:58:13;14.87;;;7.33;;
77417;SDS011;66490;51.484;0.026;2023-04-01T01:00:58;10.40;;;6.32;;
77417;SDS011;66490;51.484;0.026;2023-04-01T01:03:43;10.35;;;6.05;;
77417;SDS011;66490;51.484;0.026;2023-04-01T01:06:33;10.35;;;5.75;;
77417;SDS011;66490;51.484;0.026;2023-04-01T01:15:49;7.28;;;4.20;;
77417;SDS011;66490;51.484;0.026;2023-04-01T01:18:38;9.18;;;4.85;;
77417;SDS011;66490;51.484;0.026;2023-04-01T01:27:00;8.73;;;4.50;;
77417;SDS011;66490;51.484;0.026;2023-04-01T01:35:37;8.27;;;4.70;;
77417;SDS011;66490;51.484;0.026;2023-04-01T01:38:23;8.52;;;4.30;;
77417;SDS011;66490;51.484;0.026;2023-04-01T01:41:08;9.53;;;4.70;;
77417;SDS011;66490;51.484;0.026;2023-04-01T01:43:54;7.43;;;4.07;;
77417;SDS011;66490;51.484;0.026;2023-04-01T01:46:38;8.45;;;4.72;;
77417;SDS011;66490;51.484;0.026;2023-04-01T01:49:23;8.90;;;4.63;;
77417;SDS011;66490;51.484;0.026;2023-04-01T01:52:07;10.00;;;4.68;;
77417;SDS011;66490;51.484;0.026;2023-04-01T01:54:53;8.17;;;4.70;;
77417;SDS011;66490;51.484;0.026;2023-04-01T01:57:37;9.85;;;4.20;;
77417;SDS011;66490;51.484;0.026;2023-04-01T02:00:22;9.10;;;3.85;;
77417;SDS011;66490;51.484;0.026;2023-04-01T02:03:06;8.05;;;3.85;;
77417;SDS011;66490;51.484;0.026;2023-04-01T02:05:51;8.55;;;3.90;;
77417;SDS011;66490;51.484;0.026;2023-04-01T02:08:36;8.50;;;4.10;;
77417;SDS011;66490;51.484;0.026;2023-04-01T02:11:34;8.40;;;4.03;;
77417;SDS011;66490;51.484;0.026;2023-04-01T02:14:20;8.05;;;3.67;;
77417;SDS011;66490;51.484;0.026;2023-04-01T02:17:09;7.30;;;3.53;;
77417;SDS011;66490;51.484;0.026;2023-04-01T02:19:56;7.63;;;3.88;;
77417;SDS011;66490;51.484;0.026;2023-04-01T02:22:41;8.83;;;4.47;;
77417;SDS011;66490;51.484;0.026;2023-04-01T02:25:35;9.07;;;4.13;;
77417;SDS011;66490;51.484;0.026;2023-04-01T02:28:21;11.70;;;3.92;;
77417;SDS011;66490;51.484;0.026;2023-04-01T02:31:08;9.48;;;3.95;;
77417;SDS011;66490;51.484;0.026;2023-04-01T02:33:54;7.72;;;3.85;;
77417;SDS011;66490;51.484;0.026;2023-04-01T02:36:38;7.57;;;3.03;;
77417;SDS011;66490;51.484;0.026;2023-04-01T02:39:25;6.85;;;3.47;;
77417;SDS011;66490;51.484;0.026;2023-04-01T02:42:13;7.97;;;4.20;;
77417;SDS011;66490;51.484;0.026;2023-04-01T02:44:57;9.13;;;3.65;;
77417;SDS011;66490;51.484;0.026;2023-04-01T02:47:41;9.32;;;4.13;;
77417;SDS011;66490;51.484;0.026;2023-04-01T02:50:25;7.33;;;3.83;;
77417;SDS011;66490;51.484;0.026;2023-04-01T02:53:09;9.52;;;4.63;;
77417;SDS011;66490;51.484;0.026;2023-04-01T02:55:54;9.55;;;4.00;;
77417;SDS011;66490;51.484;0.026;2023-04-01T02:58:39;8.20;;;4.15;;
77417;SDS011;66490;51.484;0.026;2023-04-01T03:01:24;8.13;;;4.30;;
77417;SDS011;66490;51.484;0.026;2023-04-01T03:04:07;11.13;;;4.70;;
77417;SDS011;66490;51.484;0.026;2023-04-01T03:06:54;7.75;;;3.90;;
77417;SDS011;66490;51.484;0.026;2023-04-01T03:09:39;8.32;;;4.22;;
77417;SDS011;66490;51.484;0.026;2023-04-01T03:12:23;9.02;;;3.63;;
77417;SDS011;66490;51.484;0.026;2023-04-01T03:15:09;7.35;;;3.92;;
77417;SDS011;66490;51.484;0.026;2023-04-01T03:17:53;7.93;;;3.50;;
77417;SDS011;66490;51.484;0.026;2023-04-01T03:20:37;8.93;;;3.85;;
77417;SDS011;66490;51.484;0.026;2023-04-01T03:23:21;7.20;;;3.65;;
77417;SDS011;66490;51.484;0.026;2023-04-01T03:26:05;9.27;;;3.85;;
77417;SDS011;66490;51.484;0.026;2023-04-01T03:28:49;7.93;;;3.80;;
77417;SDS011;66490;51.484;0.026;2023-04-01T03:31:33;7.87;;;4.13;;
77417;SDS011;66490;51.484;0.026;2023-04-01T03:34:28;7.45;;;3.50;;
77417;SDS011;66490;51.484;0.026;2023-04-01T03:37:12;8.75;;;3.08;;
77417;SDS011;66490;51.484;0.026;2023-04-01T03:39:56;7.25;;;3.10;;
77417;SDS011;66490;51.484;0.026;2023-04-01T03:42:40;7.47;;;3.20;;
77417;SDS011;66490;51.484;0.026;2023-04-01T03:45:24;5.80;;;2.57;;
77417;SDS011;66490;51.484;0.026;2023-04-01T03:48:08;8.48;;;3.38;;
77417;SDS011;66490;51.484;0.026;2023-04-01T03:50:58;6.97;;;2.97;;
77417;SDS011;66490;51.484;0.026;2023-04-01T03:53:42;7.18;;;2.55;;
77417;SDS011;66490;51.484;0.026;2023-04-01T03:56:26;7.20;;;2.55;;
77417;SDS011;66490;51.484;0.026;2023-04-01T03:59:10;8.37;;;2.90;;
77417;SDS011;66490;51.484;0.026;2023-04-01T04:01:54;6.38;;;2.85;;
77417;SDS011;66490;51.484;0.026;2023-04-01T04:04:38;6.28;;;2.60;;
77417;SDS011;66490;51.484;0.026;2023-04-01T04:07:22;6.80;;;2.75;;
77417;SDS011;66490;51.484;0.026;2023-04-01T04:10:06;7.10;;;3.00;;
77417;SDS011;66490;51.484;0.026;2023-04-01T04:12:50;6.10;;;3.43;;
77417;SDS011;66490;51.484;0.026;2023-04-01T04:15:34;6.78;;;3.25;;
77417;SDS011;66490;51.484;0.026;2023-04-01T04:18:18;6.85;;;2.72;;
77417;SDS011;66490;51.484;0.026;2023-04-01T04:21:05;4.80;;;2.10;;
77417;SDS011;66490;51.484;0.026;2023-04-01T04:23:49;5.93;;;2.60;;
77417;SDS011;66490;51.484;0.026;2023-04-01T04:26:34;5.40;;;2.47;;
77417;SDS011;66490;51.484;0.026;2023-04-01T04:29:18;6.45;;;3.22;;
77417;SDS011;66490;51.484;0.026;2023-04-01T04:32:05;6.47;;;2.45;;
77417;SDS011;66490;51.484;0.026;2023-04-01T04:34:49;7.70;;;3.20;;
77417;SDS011;66490;51.484;0.026;2023-04-01T04:37:33;6.28;;;2.88;;
77417;SDS011;66490;51.484;0.026;2023-04-01T04:40:17;7.93;;;3.20;;
77417;SDS011;66490;51.484;0.026;2023-04-01T04:43:01;6.65;;;2.95;;
77417;SDS011;66490;51.484;0.026;2023-04-01T04:45:45;7.20;;;2.95;;
77417;SDS011;66490;51.484;0.026;2023-04-01T04:48:29;8.10;;;3.05;;
77417;SDS011;66490;51.484;0.026;2023-04-01T04:51:14;6.03;;;2.65;;
77417;SDS011;66490;51.484;0.026;2023-04-01T04:53:58;6.33;;;2.83;;
77417;SDS011;66490;51.484;0.026;2023-04-01T04:56:42;7.32;;;2.80;;
77417;SDS011;66490;51.484;0.026;2023-04-01T04:59:26;5.95;;;2.58;;
77417;SDS011;66490;51.484;0.026;2023-04-01T05:02:10;5.78;;;2.78;;
77417;SDS011;66490;51.484;0.026;2023-04-01T05:04:54;4.60;;;2.22;;
77417;SDS011;66490;51.484;0.026;2023-04-01T05:07:38;4.60;;;2.10;;
77417;SDS011;66490;51.484;0.026;2023-04-01T05:10:25;6.88;;;2.85;;
77417;SDS011;66490;51.484;0.026;2023-04-01T05:13:09;4.88;;;2.30;;
77417;SDS011;66490;51.484;0.026;2023-04-01T05:15:53;4.85;;;2.28;;
77417;SDS011;66490;51.484;0.026;2023-04-01T05:18:36;6.78;;;2.65;;
77417;SDS011;66490;51.484;0.026;2023-04-01T05:21:20;6.43;;;2.63;;
77417;SDS011;66490;51.484;0.026;2023-04-01T05:24:07;6.95;;;2.85;;
77417;SDS011;66490;51.484;0.026;2023-04-01T05:26:51;6.57;;;2.72;;
77417;SDS011;66490;51.484;0.026;2023-04-01T05:29:34;7.40;;;3.03;;
77417;SDS011;66490;51.484;0.026;2023-04-01T05:32:18;6.47;;;2.70;;
77417;SDS011;66490;51.484;0.026;2023-04-01T05:35:02;6.27;;;3.07;;
77417;SDS011;66490;51.484;0.026;2023-04-01T05:37:46;7.97;;;2.88;;
77417;SDS011;66490;51.484;0.026;2023-04-01T05:40:31;7.90;;;2.60;;
77417;SDS011;66490;51.484;0.026;2023-04-01T05:43:15;6.13;;;3.03;;
77417;SDS011;66490;51.484;0.026;2023-04-01T05:45:59;6.95;;;3.20;;
77417;SDS011;66490;51.484;0.026;2023-04-01T05:48:43;7.73;;;3.70;;
77417;SDS011;66490;51.484;0.026;2023-04-01T05:51:27;8.63;;;4.03;;
77417;SDS011;66490;51.484;0.026;2023-04-01T05:54:11;8.65;;;3.33;;
77417;SDS011;66490;51.484;0.026;2023-04-01T05:56:55;7.82;;;3.63;;
77417;SDS011;66490;51.484;0.026;2023-04-01T05:59:39;7.60;;;3.92;;
77417;SDS011;66490;51.484;0.026;2023-04-01T06:02:23;8.57;;;4.80;;
77417;SDS011;66490;51.484;0.026;2023-04-01T06:05:14;10.38;;;4.43;;
77417;SDS011;66490;51.484;0.026;2023-04-01T06:08:01;9.38;;;4.40;;
77417;SDS011;66490;51.484;0.026;2023-04-01T06:13:58;11.40;;;5.63;;
77417;SDS011;66490;51.484;0.026;2023-04-01T06:17:07;9.87;;;4.60;;
77417;SDS011;66490;51.484;0.026;2023-04-01T06:55:29;13.00;;;4.50;;
77417;SDS011;66490;51.484;0.026;2023-04-01T06:58:19;10.90;;;5.18;;
77417;SDS011;66490;51.484;0.026;2023-04-01T07:01:05;12.40;;;5.30;;
77417;SDS011;66490;51.484;0.026;2023-04-01T07:03:54;12.18;;;5.45;;
77417;SDS011;66490;51.484;0.026;2023-04-01T07:06:44;11.45;;;5.22;;
77417;SDS011;66490;51.484;0.026;2023-04-01T07:09:37;11.13;;;5.18;;
77417;SDS011;66490;51.484;0.026;2023-04-01T07:12:45;12.93;;;5.85;;
77417;SDS011;66490;51.484;0.026;2023-04-01T07:15:28;12.43;;;5.73;;
77417;SDS011;66490;51.484;0.026;2023-04-01T07:18:22;11.55;;;5.20;;
77417;SDS011;66490;51.484;0.026;2023-04-01T07:21:19;9.32;;;4.40;;
77417;SDS011;66490;51.484;0.026;2023-04-01T07:24:05;14.50;;;4.90;;
77417;SDS011;66490;51.484;0.026;2023-04-01T07:26:54;12.13;;;4.65;;
77417;SDS011;66490;51.484;0.026;2023-04-01T07:29:39;11.57;;;4.57;;
77417;SDS011;66490;51.484;0.026;2023-04-01T07:32:42;11.07;;;5.47;;
77417;SDS011;66490;51.484;0.026;2023-04-01T07:35:38;13.02;;;5.45;;
77417;SDS011;66490;51.484;0.026;2023-04-01T07:39:12;10.57;;;4.43;;
77417;SDS011;66490;51.484;0.026;2023-04-01T07:41:36;12.95;;;5.78;;
77417;SDS011;66490;51.484;0.026;2023-04-01T07:47:24;13.88;;;5.70;;
77417;SDS011;66490;51.484;0.026;2023-04-01T07:55:50;15.95;;;7.38;;
77417;SDS011;66490;51.484;0.026;2023-04-01T07:58:42;15.13;;;7.30;;
77417;SDS011;66490;51.484;0.026;2023-04-01T08:07:22;13.45;;;6.18;;
77417;SDS011;66490;51.484;0.026;2023-04-01T08:10:11;15.43;;;7.32;;
77417;SDS011;66490;51.484;0.026;2023-04-01T08:13:16;15.90;;;6.40;;
77417;SDS011;66490;51.484;0.026;2023-04-01T08:16:09;13.43;;;5.65;;
77417;SDS011;66490;51.484;0.026;2023-04-01T08:19:10;13.10;;;6.53;;
77417;SDS011;66490;51.484;0.026;2023-04-01T08:21:58;11.65;;;5.80;;
77417;SDS011;66490;51.484;0.026;2023-04-01T08:24:48;14.98;;;5.93;;
77417;SDS011;66490;51.484;0.026;2023-04-01T08:33:13;12.18;;;5.68;;
77417;SDS011;66490;51.484;0.026;2023-04-01T08:36:06;14.07;;;6.20;;
77417;SDS011;66490;51.484;0.026;2023-04-01T08:38:59;14.85;;;5.45;;
77417;SDS011;66490;51.484;0.026;2023-04-01T08:50:36;13.13;;;6.20;;
77417;SDS011;66490;51.484;0.026;2023-04-01T09:23:07;8.70;;;4.60;;
77417;SDS011;66490;51.484;0.026;2023-04-01T09:28:42;12.00;;;5.47;;
77417;SDS011;66490;51.484;0.026;2023-04-01T09:55:28;7.33;;;3.70;;
77417;SDS011;66490;51.484;0.026;2023-04-01T10:18:03;8.05;;;2.97;;
77417;SDS011;66490;51.484;0.026;2023-04-01T10:29:34;6.57;;;3.03;;
77417;SDS011;66490;51.484;0.026;2023-04-01T10:35:41;8.05;;;3.53;;
77417;SDS011;66490;51.484;0.026;2023-04-01T10:38:38;8.47;;;3.63;;
77417;SDS011;66490;51.484;0.026;2023-04-01T11:16:01;11.70;;;5.82;;
77417;SDS011;66490;51.484;0.026;2023-04-01T11:21:46;12.87;;;5.90;;
77417;SDS011;66490;51.484;0.026;2023-04-01T11:30:22;12.05;;;5.45;;
77417;SDS011;66490;51.484;0.026;2023-04-01T11:41:49;14.55;;;5.93;;
77417;SDS011;66490;51.484;0.026;2023-04-01T11:44:37;14.70;;;5.80;;
77417;SDS011;66490;51.484;0.026;2023-04-01T11:56:03;12.48;;;5.63;;
77417;SDS011;66490;51.484;0.026;2023-04-01T12:01:49;10.88;;;4.03;;
77417;SDS011;66490;51.484;0.026;2023-04-01T12:07:40;10.25;;;4.90;;
77417;SDS011;66490;51.484;0.026;2023-04-01T12:10:26;10.45;;;4.90;;
77417;SDS011;66490;51.484;0.026;2023-04-01T12:13:28;12.07;;;4.25;;
77417;SDS011;66490;51.484;0.026;2023-04-01T12:19:41;12.70;;;4.37;;
77417;SDS011;66490;51.484;0.026;2023-04-01T12:28:29;10.65;;;3.72;;
77417;SDS011;66490;51.484;0.026;2023-04-01T12:31:18;9.10;;;2.90;;
77417;SDS011;66490;51.484;0.026;2023-04-01T12:34:09;8.67;;;3.20;;
77417;SDS011;66490;51.484;0.026;2023-04-01T12:43:02;10.32;;;3.70;;
77417;SDS011;66490;51.484;0.026;2023-04-01T12:49:05;9.83;;;3.40;;
77417;SDS011;66490;51.484;0.026;2023-04-01T12:51:57;9.30;;;3.53;;
77417;SDS011;66490;51.484;0.026;2023-04-01T13:09:35;6.72;;;2.10;;
77417;SDS011;66490;51.484;0.026;2023-04-01T13:15:37;5.90;;;2.08;;
77417;SDS011;66490;51.484;0.026;2023-04-01T13:21:16;6.68;;;2.30;;
77417;SDS011;66490;51.484;0.026;2023-04-01T13:30:01;6.85;;;2.20;;
77417;SDS011;66490;51.484;0.026;2023-04-01T13:32:49;6.97;;;2.53;;
77417;SDS011;66490;51.484;0.026;2023-04-01T13:47:16;7.47;;;2.70;;
77417;SDS011;66490;51.484;0.026;2023-04-01T13:50:07;5.93;;;2.15;;
77417;SDS011;66490;51.484;0.026;2023-04-01T13:53:12;7.00;;;3.45;;
77417;SDS011;66490;51.484;0.026;2023-04-01T14:01:50;7.60;;;2.37;;
77417;SDS011;66490;51.484;0.026;2023-04-01T14:10:19;8.77;;;2.83;;
77417;SDS011;66490;51.484;0.026;2023-04-01T14:16:25;9.40;;;2.13;;
77417;SDS011;66490;51.484;0.026;2023-04-01T14:22:37;6.68;;;2.33;;
77417;SDS011;66490;51.484;0.026;2023-04-01T14:25:17;4.97;;;2.15;;
77417;SDS011;66490;51.484;0.026;2023-04-01T14:31:02;6.80;;;2.20;;
77417;SDS011;66490;51.484;0.026;2023-04-01T14:33:59;6.45;;;3.05;;
77417;SDS011;66490;51.484;0.026;2023-04-01T14:42:23;8.52;;;2.85;;
77417;SDS011;66490;51.484;0.026;2023-04-01T14:48:49;8.70;;;3.72;;
77417;SDS011;66490;51.484;0.026;2023-04-01T14:51:35;8.15;;;3.28;;
77417;SDS011;66490;51.484;0.026;2023-04-01T14:54:30;8.93;;;3.60;;
77417;SDS011;66490;51.484;0.026;2023-04-01T14:57:16;10.48;;;3.38;;
77417;SDS011;66490;51.484;0.026;2023-04-01T15:05:47;7.18;;;3.78;;
77417;SDS011;66490;51.484;0.026;2023-04-01T15:23:30;7.95;;;2.97;;
77417;SDS011;66490;51.484;0.026;2023-04-01T15:26:26;10.15;;;3.67;;
77417;SDS011;66490;51.484;0.026;2023-04-01T15:41:12;8.93;;;4.07;;
77417;SDS011;66490;51.484;0.026;2023-04-01T15:43:56;9.77;;;4.00;;
77417;SDS011;66490;51.484;0.026;2023-04-01T15:49:35;9.23;;;4.68;;
77417;SDS011;66490;51.484;0.026;2023-04-01T15:52:23;9.77;;;5.13;;
77417;SDS011;66490;51.484;0.026;2023-04-01T15:58:05;10.03;;;3.97;;
77417;SDS011;66490;51.484;0.026;2023-04-01T16:07:17;11.45;;;4.55;;
77417;SDS011;66490;51.484;0.026;2023-04-01T16:22:14;8.70;;;4.40;;
77417;SDS011;66490;51.484;0.026;2023-04-01T16:33:49;13.73;;;4.90;;
77417;SDS011;66490;51.484;0.026;2023-04-01T16:36:37;12.02;;;4.95;;
77417;SDS011;66490;51.484;0.026;2023-04-01T16:47:56;11.25;;;4.57;;
77417;SDS011;66490;51.484;0.026;2023-04-01T16:53:52;6.93;;;3.38;;
77417;SDS011;66490;51.484;0.026;2023-04-01T16:56:47;7.50;;;3.40;;
77417;SDS011;66490;51.484;0.026;2023-04-01T16:59:35;8.95;;;3.15;;
77417;SDS011;66490;51.484;0.026;2023-04-01T17:02:22;11.35;;;4.00;;
77417;SDS011;66490;51.484;0.026;2023-04-01T17:05:08;8.77;;;4.10;;
77417;SDS011;66490;51.484;0.026;2023-04-01T17:10:43;7.83;;;3.43;;
77417;SDS011;66490;51.484;0.026;2023-04-01T17:22:00;6.30;;;3.22;;
77417;SDS011;66490;51.484;0.026;2023-04-01T17:30:26;8.63;;;3.72;;
77417;SDS011;66490;51.484;0.026;2023-04-01T17:33:16;7.45;;;3.65;;
77417;SDS011;66490;51.484;0.026;2023-04-01T17:41:53;7.25;;;3.05;;
77417;SDS011;66490;51.484;0.026;2023-04-01T17:47:28;8.20;;;3.60;;
77417;SDS011;66490;51.484;0.026;2023-04-01T17:50:18;9.30;;;3.53;;
77417;SDS011;66490;51.484;0.026;2023-04-01T17:55:56;9.88;;;4.50;;
77417;SDS011;66490;51.484;0.026;2023-04-01T18:12:52;7.38;;;3.38;;
77417;SDS011;66490;51.484;0.026;2023-04-01T18:15:41;9.73;;;3.38;;
77417;SDS011;66490;51.484;0.026;2023-04-01T18:21:22;6.90;;;3.27;;
77417;SDS011;66490;51.484;0.026;2023-04-01T18:27:11;7.97;;;2.90;;
77417;SDS011;66490;51.484;0.026;2023-04-01T18:38:55;7.75;;;3.17;;
77417;SDS011;66490;51.484;0.026;2023-04-01T18:44:47;9.32;;;3.00;;
77417;SDS011;66490;51.484;0.026;2023-04-01T18:47:38;9.40;;;3.72;;
77417;SDS011;66490;51.484;0.026;2023-04-01T18:50:27;5.13;;;2.33;;
77417;SDS011;66490;51.484;0.026;2023-04-01T18:56:12;6.22;;;2.80;;
77417;SDS011;66490;51.484;0.026;2023-04-01T18:58:59;5.57;;;2.90;;
77417;SDS011;66490;51.484;0.026;2023-04-01T19:07:55;6.72;;;3.38;;
77417;SDS011;66490;51.484;0.026;2023-04-01T19:21:53;8.77;;;3.45;;
77417;SDS011;66490;51.484;0.026;2023-04-01T19:27:35;7.13;;;3.40;;
77417;SDS011;66490;51.484;0.026;2023-04-01T19:30:36;7.55;;;3.50;;
77417;SDS011;66490;51.484;0.026;2023-04-01T19:33:39;8.03;;;2.93;;
77417;SDS011;66490;51.484;0.026;2023-04-01T19:48:04;7.87;;;2.97;;
77417;SDS011;66490;51.484;0.026;2023-04-01T19:50:55;6.55;;;2.47;;
77417;SDS011;66490;51.484;0.026;2023-04-01T19:56:28;7.68;;;2.78;;
77417;SDS011;66490;51.484;0.026;2023-04-01T19:59:18;5.45;;;2.55;;
77417;SDS011;66490;51.484;0.026;2023-04-01T20:04:59;9.18;;;3.00;;
77417;SDS011;66490;51.484;0.026;2023-04-01T20:07:52;8.75;;;2.60;;
77417;SDS011;66490;51.484;0.026;2023-04-01T20:16:06;7.10;;;2.50;;
77417;SDS011;66490;51.484;0.026;2023-04-01T20:19:00;6.68;;;1.67;;
77417;SDS011;66490;51.484;0.026;2023-04-01T20:21:45;5.55;;;1.80;;
77417;SDS011;66490;51.484;0.026;2023-04-01T20:24:35;9.52;;;2.08;;
77417;SDS011;66490;51.484;0.026;2023-04-01T20:27:22;6.70;;;2.40;;
77417;SDS011;66490;51.484;0.026;2023-04-01T20:44:31;6.20;;;2.13;;
77417;SDS011;66490;51.484;0.026;2023-04-01T20:47:39;7.15;;;2.00;;
77417;SDS011;66490;51.484;0.026;2023-04-01T20:50:41;9.40;;;1.88;;
77417;SDS011;66490;51.484;0.026;2023-04-01T21:10:41;5.85;;;2.17;;
77417;SDS011;66490;51.484;0.026;2023-04-01T21:16:46;6.38;;;1.80;;
77417;SDS011;66490;51.484;0.026;2023-04-01T21:19:40;6.82;;;2.20;;
77417;SDS011;66490;51.484;0.026;2023-04-01T21:34:43;5.00;;;1.25;;
77417;SDS011;66490;51.484;0.026;2023-04-01T21:40:35;4.28;;;1.52;;
77417;SDS011;66490;51.484;0.026;2023-04-01T21:52:11;5.80;;;1.45;;
77417;SDS011;66490;51.484;0.026;2023-04-01T21:55:05;6.72;;;2.28;;
77417;SDS011;66490;51.484;0.026;2023-04-01T22:06:25;6.32;;;1.83;;
77417;SDS011;66490;51.484;0.026;2023-04-01T22:09:21;4.13;;;1.75;;
77417;SDS011;66490;51.484;0.026;2023-04-01T22:12:13;4.40;;;1.47;;
77417;SDS011;66490;51.484;0.026;2023-04-01T22:17:51;6.68;;;1.33;;
77417;SDS011;66490;51.484;0.026;2023-04-01T22:20:40;6.15;;;1.60;;
77417;SDS011;66490;51.484;0.026;2023-04-01T22:23:30;4.05;;;1.50;;
77417;SDS011;66490;51.484;0.026;2023-04-01T22:26:26;6.40;;;1.43;;
77417;SDS011;66490;51.484;0.026;2023-04-01T22:32:00;4.50;;;1.63;;
77417;SDS011;66490;51.484;0.026;2023-04-01T22:34:49;4.05;;;1.55;;
77417;SDS011;66490;51.484;0.026;2023-04-01T22:55:25;6.30;;;1.33;;
77417;SDS011;66490;51.484;0.026;2023-04-01T22:58:18;3.53;;;1.27;;
77417;SDS011;66490;51.484;0.026;2023-04-01T23:01:06;4.15;;;1.58;;
77417;SDS011;66490;51.484;0.026;2023-04-01T23:03:51;3.22;;;1.48;;
77417;SDS011;66490;51.484;0.026;2023-04-01T23:06:38;5.82;;;1.67;;
77417;SDS011;66490;51.484;0.026;2023-04-01T23:09:27;4.53;;;2.20;;
77417;SDS011;66490;51.484;0.026;2023-04-01T23:12:15;5.15;;;1.67;;
77417;SDS011;66490;51.484;0.026;2023-04-01T23:15:00;7.32;;;2.25;;
77417;SDS011;66490;51.484;0.026;2023-04-01T23:29:15;4.18;;;1.50;;
77417;SDS011;66490;51.484;0.026;2023-04-01T23:32:00;4.43;;;2.00;;
77417;SDS011;66490;51.484;0.026;2023-04-01T23:34:49;4.85;;;1.80;;
77417;SDS011;66490;51.484;0.026;2023-04-01T23:37:33;8.23;;;1.87;;
77417;SDS011;66490;51.484;0.026;2023-04-01T23:40:17;5.20;;;2.00;;
77417;SDS011;66490;51.484;0.026;2023-04-01T23:43:01;3.70;;;1.75;;
77417;SDS011;66490;51.484;0.026;2023-04-01T23:45:47;4.85;;;2.08;;
77417;SDS011;66490;51.484;0.026;2023-04-01T23:48:32;4.32;;;1.77;;
77417;SDS011;66490;51.484;0.026;2023-04-01T23:51:25;5.23;;;2.70;;
77417;SDS011;66490;51.484;0.026;2023-04-01T23:57:13;4.70;;;1.85;;
